Time;durP1;ratioP1;P1;durP2;ratioP2;P2;SDS_P1;SDS_P2;PMS_P1;PMS_P2;Temp;Humidity;BMP_temperature;BMP_pressure;BME280_temperature;BME280_humidity;BME280_pressure;Samples;Min_cycle;Max_cycle;Signal;HPM_P1;HPM_P2
2023/01/13 00:01:21;;;;;;;6.25;0.70;;;7.20;99.90;;;;;;5026354;28;20393;-74
2023/01/13 00:03:47;;;;;;;4.47;0.80;;;7.10;99.90;;;;;;5025947;28;20026;-73
2023/01/13 00:06:16;;;;;;;6.93;1.25;;;7.20;99.90;;;;;;5023434;28;20522;-73
2023/01/13 00:08:42;;;;;;;7.82;1.30;;;7.40;99.90;;;;;;5023002;28;20041;-72
2023/01/13 00:11:09;;;;;;;5.10;1.10;;;7.30;99.90;;;;;;5023968;28;20032;-73
2023/01/13 00:13:37;;;;;;;5.18;1.00;;;7.30;99.90;;;;;;5022998;28;20500;-73
2023/01/13 00:16:10;;;;;;;5.65;0.85;;;7.30;99.90;;;;;;5023143;28;20028;-73
2023/01/13 00:18:35;;;;;;;6.43;1.20;;;7.20;99.90;;;;;;5024111;28;20152;-73
2023/01/13 00:21:24;;;;;;;6.95;0.85;;;7.30;99.90;;;;;;5023918;28;20472;-73
2023/01/13 00:23:52;;;;;;;5.45;0.93;;;7.30;99.90;;;;;;5022840;28;20033;-74
2023/01/13 00:26:24;;;;;;;5.05;0.80;;;7.40;99.90;;;;;;5019521;28;20043;-72
2023/01/13 00:28:54;;;;;;;9.10;1.63;;;7.50;99.90;;;;;;5024004;28;20025;-73
2023/01/13 00:31:20;;;;;;;9.27;1.65;;;7.40;99.90;;;;;;5024763;28;20068;-73
2023/01/13 00:33:47;;;;;;;10.73;1.30;;;7.50;99.90;;;;;;5021005;28;20500;-73
2023/01/13 00:36:15;;;;;;;6.03;1.00;;;7.40;99.90;;;;;;5025110;28;20477;-73
2023/01/13 00:38:44;;;;;;;11.77;1.33;;;7.40;99.90;;;;;;5021018;28;20057;-74
2023/01/13 00:41:12;;;;;;;14.15;1.98;;;7.40;99.90;;;;;;5022830;28;20172;-72
2023/01/13 00:43:39;;;;;;;10.30;0.90;;;7.60;99.90;;;;;;5022211;28;20026;-73
2023/01/13 00:46:07;;;;;;;10.05;1.55;;;7.50;99.90;;;;;;5024327;28;20489;-75
2023/01/13 00:48:33;;;;;;;9.88;1.60;;;7.50;99.90;;;;;;5017761;28;20505;-74
2023/01/13 00:51:01;;;;;;;18.73;1.73;;;7.50;99.90;;;;;;5025077;28;20477;-72
2023/01/13 00:53:31;;;;;;;12.32;1.50;;;7.50;99.90;;;;;;5023045;28;20022;-74
2023/01/13 00:56:01;;;;;;;13.73;2.63;;;7.60;99.90;;;;;;5024139;28;20047;-74
2023/01/13 00:58:29;;;;;;;6.28;1.70;;;7.60;99.90;;;;;;5022445;28;20037;-73
2023/01/13 01:01:02;;;;;;;13.93;3.20;;;7.60;99.90;;;;;;5022852;28;20021;-73
2023/01/13 01:03:28;;;;;;;9.00;2.10;;;7.50;99.90;;;;;;5021493;28;20025;-73
2023/01/13 01:05:55;;;;;;;22.27;2.63;;;7.70;99.90;;;;;;5025286;28;20076;-73
2023/01/13 01:08:21;;;;;;;10.20;2.08;;;7.80;99.90;;;;;;5023154;28;20072;-73
2023/01/13 01:10:47;;;;;;;16.15;3.05;;;7.90;99.90;;;;;;5023487;28;20486;-73
2023/01/13 01:13:16;;;;;;;15.27;2.50;;;8.00;99.90;;;;;;5020866;28;20026;-73
2023/01/13 01:15:43;;;;;;;18.05;2.42;;;8.10;99.90;;;;;;5018441;28;20502;-72
2023/01/13 01:18:09;;;;;;;25.02;2.45;;;8.00;99.90;;;;;;5025488;28;20131;-73
2023/01/13 01:20:36;;;;;;;17.15;2.85;;;7.90;99.90;;;;;;5023001;28;20465;-74
2023/01/13 01:23:02;;;;;;;17.90;2.20;;;7.90;99.90;;;;;;5023536;28;20447;-74
2023/01/13 01:25:28;;;;;;;19.38;2.65;;;8.00;99.90;;;;;;5023900;28;20021;-72
2023/01/13 01:27:54;;;;;;;17.35;3.08;;;8.00;99.90;;;;;;5022637;28;20104;-73
2023/01/13 01:30:20;;;;;;;16.73;2.30;;;8.00;99.90;;;;;;5023940;28;20456;-71
2023/01/13 01:32:45;;;;;;;15.25;2.22;;;8.00;99.90;;;;;;5023490;28;20033;-72
2023/01/13 01:35:17;;;;;;;11.77;1.80;;;7.90;99.90;;;;;;5023307;28;20030;-74
2023/01/13 01:37:43;;;;;;;13.07;3.45;;;7.90;99.90;;;;;;5022460;28;20539;-72
2023/01/13 01:40:09;;;;;;;15.63;2.55;;;7.90;99.90;;;;;;5025342;28;20022;-74
2023/01/13 01:45:28;;;;;;;15.48;3.08;;;7.80;99.90;;;;;;5026930;28;20087;-73
2023/01/13 01:47:57;;;;;;;17.00;2.72;;;7.90;99.90;;;;;;5029930;28;20069;-74
2023/01/13 01:50:24;;;;;;;13.93;1.77;;;7.70;99.90;;;;;;5025374;28;20025;-72
2023/01/13 01:52:55;;;;;;;14.50;2.72;;;7.80;99.90;;;;;;5024808;28;20037;-71
2023/01/13 01:55:26;;;;;;;15.30;1.90;;;7.80;99.90;;;;;;5026345;28;20022;-73
2023/01/13 01:58:04;;;;;;;13.00;1.70;;;7.70;99.90;;;;;;5025626;28;20033;-72
2023/01/13 02:00:30;;;;;;;16.02;1.65;;;7.80;99.90;;;;;;5036273;28;20072;-74
2023/01/13 02:02:57;;;;;;;7.55;1.50;;;7.80;99.90;;;;;;5027485;28;20025;-72
2023/01/13 02:05:23;;;;;;;9.48;1.42;;;7.80;99.90;;;;;;5028128;28;20029;-72
2023/01/13 02:07:53;;;;;;;15.38;2.38;;;7.80;99.90;;;;;;5028121;28;20025;-72
2023/01/13 02:10:26;;;;;;;7.18;1.40;;;7.90;99.90;;;;;;5025853;28;20018;-73
2023/01/13 02:12:54;;;;;;;8.13;1.77;;;7.80;99.90;;;;;;5026160;28;20037;-72
2023/01/13 02:15:22;;;;;;;11.90;1.55;;;7.90;99.90;;;;;;5025159;28;20017;-73
2023/01/13 02:17:51;;;;;;;13.18;1.98;;;7.80;99.90;;;;;;5025100;28;20104;-73
2023/01/13 02:20:31;;;;;;;17.00;2.00;;;7.80;99.90;;;;;;5028224;28;20063;-73
2023/01/13 02:26:20;;;;;;;12.50;1.70;;;7.80;99.90;;;;;;5016232;28;20095;-73
2023/01/13 02:31:43;;;;;;;27.10;3.10;;;7.80;99.90;;;;;;5025793;28;20031;-73
2023/01/13 02:34:28;;;;;;;14.63;2.53;;;7.70;99.90;;;;;;5025272;28;20029;-73
2023/01/13 02:37:15;;;;;;;10.10;2.08;;;7.70;99.90;;;;;;5023971;28;20072;-71
2023/01/13 02:39:58;;;;;;;13.23;3.72;;;7.60;99.90;;;;;;5019208;28;20033;-73
2023/01/13 02:45:41;;;;;;;17.70;1.95;;;7.80;99.90;;;;;;5014047;28;20084;-71
2023/01/13 02:48:09;;;;;;;14.07;2.30;;;7.70;99.90;;;;;;5021428;28;20124;-72
2023/01/13 02:50:42;;;;;;;11.07;2.42;;;7.70;99.90;;;;;;5029813;28;20068;-72
2023/01/13 02:53:13;;;;;;;16.85;2.72;;;7.80;99.90;;;;;;5028041;28;20064;-72
2023/01/13 02:55:45;;;;;;;15.63;2.20;;;7.90;99.90;;;;;;5024135;28;20036;-73
2023/01/13 02:58:15;;;;;;;16.20;1.98;;;7.80;99.90;;;;;;5023450;28;20295;-72
2023/01/13 03:00:43;;;;;;;12.98;1.63;;;7.70;99.90;;;;;;5027176;28;20056;-73
2023/01/13 03:03:09;;;;;;;11.35;2.45;;;7.70;99.90;;;;;;5037806;28;20125;-73
2023/01/13 03:05:35;;;;;;;14.57;2.42;;;7.80;99.90;;;;;;5026246;28;20029;-72
2023/01/13 03:08:14;;;;;;;20.15;3.60;;;7.80;99.90;;;;;;5024444;28;20216;-72
2023/01/13 03:10:55;;;;;;;16.60;2.45;;;7.80;99.90;;;;;;5028959;28;20462;-72
2023/01/13 03:13:32;;;;;;;24.92;3.67;;;7.80;99.90;;;;;;5015246;28;20026;-72
2023/01/13 03:16:39;;;;;;;24.63;3.35;;;7.70;99.90;;;;;;5020377;28;20021;-72
2023/01/13 03:19:31;;;;;;;17.30;2.85;;;7.70;99.90;;;;;;5017940;28;20034;-71
2023/01/13 03:21:56;;;;;;;27.00;2.92;;;7.60;99.90;;;;;;5027498;28;20492;-72
2023/01/13 03:24:40;;;;;;;14.88;2.05;;;7.80;99.90;;;;;;5030242;28;20033;-72
2023/01/13 03:27:51;;;;;;;16.40;2.75;;;7.90;99.90;;;;;;5017686;28;20028;-71
2023/01/13 03:30:20;;;;;;;11.32;2.30;;;8.00;99.90;;;;;;5024112;28;20485;-72
2023/01/13 03:32:52;;;;;;;17.55;2.65;;;8.00;99.90;;;;;;5019340;28;20104;-71
2023/01/13 03:35:18;;;;;;;10.90;1.98;;;8.00;99.90;;;;;;5020944;28;20025;-72
2023/01/13 03:37:56;;;;;;;13.77;2.35;;;8.00;99.90;;;;;;5023561;28;20040;-72
2023/01/13 03:40:32;;;;;;;16.25;2.42;;;8.10;99.90;;;;;;5027919;28;20583;-74
2023/01/13 03:45:56;;;;;;;15.43;2.80;;;8.00;99.90;;;;;;5025838;28;20040;-72
2023/01/13 03:48:26;;;;;;;17.08;2.97;;;8.10;99.90;;;;;;5024228;28;20136;-72
2023/01/13 03:50:55;;;;;;;20.70;2.40;;;7.90;99.90;;;;;;5019167;28;20033;-72
2023/01/13 03:53:29;;;;;;;15.20;1.95;;;8.00;99.90;;;;;;5027292;28;20053;-71
2023/01/13 03:56:02;;;;;;;17.77;2.03;;;8.10;99.90;;;;;;5019245;28;20064;-71
2023/01/13 03:58:49;;;;;;;18.10;2.47;;;8.10;99.90;;;;;;5042491;28;20087;-72
2023/01/13 04:01:24;;;;;;;20.27;2.90;;;8.10;99.90;;;;;;5027681;28;20018;-73
2023/01/13 04:04:00;;;;;;;16.88;2.72;;;8.10;99.90;;;;;;5026742;28;20095;-71
2023/01/13 04:06:44;;;;;;;19.10;3.00;;;8.00;99.90;;;;;;5025060;28;20068;-73
2023/01/13 04:09:49;;;;;;;20.75;3.00;;;8.00;99.90;;;;;;5039577;28;20572;-72
2023/01/13 04:12:59;;;;;;;17.88;3.13;;;8.00;99.90;;;;;;5023429;28;20038;-72
2023/01/13 04:15:26;;;;;;;17.83;3.42;;;8.00;99.90;;;;;;5027726;28;20025;-72
2023/01/13 04:17:53;;;;;;;22.55;3.42;;;8.00;99.90;;;;;;5025697;28;20033;-71
2023/01/13 04:20:19;;;;;;;13.85;2.50;;;8.00;99.90;;;;;;5018027;28;20104;-72
2023/01/13 04:22:45;;;;;;;26.35;3.10;;;8.00;99.90;;;;;;5025283;28;20025;-72
2023/01/13 04:25:11;;;;;;;12.85;2.83;;;8.20;99.90;;;;;;5018666;28;20029;-72
2023/01/13 04:27:37;;;;;;;15.57;2.33;;;8.10;99.90;;;;;;5027173;28;20406;-73
2023/01/13 04:30:04;;;;;;;20.85;3.08;;;8.10;99.90;;;;;;5020734;28;20115;-72
2023/01/13 04:32:29;;;;;;;16.15;3.17;;;8.10;99.90;;;;;;5025648;28;20136;-72
2023/01/13 04:34:55;;;;;;;17.08;3.65;;;7.90;99.90;;;;;;5021336;28;20512;-72
2023/01/13 04:37:21;;;;;;;26.92;3.20;;;8.00;99.90;;;;;;5027095;28;20342;-72
2023/01/13 04:39:47;;;;;;;17.13;3.22;;;8.10;99.90;;;;;;5022256;28;20029;-73
2023/01/13 04:42:13;;;;;;;18.40;3.10;;;8.00;99.90;;;;;;5025268;28;20036;-72
2023/01/13 04:44:39;;;;;;;20.83;2.60;;;8.00;99.90;;;;;;5021439;28;20022;-72
2023/01/13 04:47:05;;;;;;;19.58;2.53;;;8.20;99.90;;;;;;5024637;28;20524;-72
2023/01/13 04:49:32;;;;;;;19.45;2.65;;;8.10;99.90;;;;;;5023229;28;20076;-72
2023/01/13 04:51:59;;;;;;;16.38;2.85;;;8.00;99.90;;;;;;5026233;28;20444;-71
2023/01/13 04:54:24;;;;;;;16.05;3.25;;;8.10;99.90;;;;;;5039353;28;20385;-73
2023/01/13 04:56:50;;;;;;;24.45;4.03;;;8.10;99.90;;;;;;5021741;28;20026;-72
2023/01/13 04:59:16;;;;;;;13.82;2.75;;;8.10;99.90;;;;;;5024213;28;20061;-71
2023/01/13 05:01:41;;;;;;;17.42;2.15;;;7.90;99.90;;;;;;5019838;28;20018;-71
2023/01/13 05:04:07;;;;;;;12.38;2.85;;;7.90;99.90;;;;;;5024950;28;20033;-72
2023/01/13 05:06:33;;;;;;;20.13;2.88;;;8.00;99.90;;;;;;5022468;28;20021;-70
2023/01/13 05:08:59;;;;;;;18.10;3.53;;;7.90;99.90;;;;;;5024444;28;20051;-72
2023/01/13 05:17:00;;;;;;;17.85;2.75;;;7.70;99.90;;;;;;5027078;28;20096;-71
2023/01/13 05:19:35;;;;;;;22.77;2.78;;;7.80;99.90;;;;;;5026289;28;20381;-71
2023/01/13 05:27:31;;;;;;;15.43;2.13;;;7.90;99.90;;;;;;5024754;28;20032;-70
2023/01/13 05:29:57;;;;;;;15.18;2.60;;;8.10;99.90;;;;;;5026894;28;20029;-71
2023/01/13 05:32:23;;;;;;;16.88;3.15;;;8.10;99.90;;;;;;5024827;28;20025;-71
2023/01/13 05:34:49;;;;;;;12.55;2.58;;;8.10;99.90;;;;;;5025815;28;20034;-72
2023/01/13 05:37:15;;;;;;;16.20;3.70;;;8.00;99.90;;;;;;5024838;28;20080;-72
2023/01/13 05:45:11;;;;;;;17.88;3.50;;;7.90;99.90;;;;;;5025931;28;20041;-71
2023/01/13 05:47:37;;;;;;;15.85;2.05;;;8.10;99.90;;;;;;5023444;28;20050;-71
2023/01/13 05:50:04;;;;;;;14.90;2.08;;;8.00;99.90;;;;;;5027215;28;20022;-72
2023/01/13 05:52:30;;;;;;;15.20;2.90;;;7.90;99.90;;;;;;5025530;28;20038;-69
2023/01/13 05:54:55;;;;;;;15.57;2.78;;;7.90;99.90;;;;;;5034121;28;20044;-71
2023/01/13 05:57:21;;;;;;;13.43;2.00;;;7.90;99.90;;;;;;5026284;28;20109;-71
2023/01/13 05:59:47;;;;;;;15.18;2.45;;;7.90;99.90;;;;;;5027965;28;20117;-71
2023/01/13 06:02:13;;;;;;;13.93;1.77;;;7.90;99.90;;;;;;5028904;28;20026;-70
2023/01/13 06:04:39;;;;;;;16.55;2.08;;;7.90;99.90;;;;;;5025805;28;20029;-72
2023/01/13 06:07:05;;;;;;;13.63;2.00;;;7.90;99.90;;;;;;5026123;28;20021;-71
2023/01/13 06:09:31;;;;;;;21.23;3.00;;;7.80;99.90;;;;;;5024256;28;20037;-71
2023/01/13 06:11:56;;;;;;;15.85;2.28;;;7.90;99.90;;;;;;5026348;28;20026;-72
2023/01/13 06:14:22;;;;;;;7.75;2.08;;;7.80;99.90;;;;;;5025908;28;20041;-71
2023/01/13 06:16:48;;;;;;;18.38;2.35;;;7.80;99.90;;;;;;5026427;28;20494;-71
2023/01/13 06:19:15;;;;;;;12.30;1.98;;;7.80;99.90;;;;;;5026224;28;20481;-71
2023/01/13 06:21:43;;;;;;;14.57;2.10;;;7.70;99.90;;;;;;5022291;28;20014;-71
2023/01/13 06:24:10;;;;;;;17.30;2.50;;;7.60;99.90;;;;;;5029066;28;20572;-71
2023/01/13 06:26:39;;;;;;;15.23;3.08;;;7.70;99.90;;;;;;5025218;28;20442;-71
2023/01/13 06:29:07;;;;;;;18.55;2.55;;;7.70;99.90;;;;;;5024681;28;20103;-71
2023/01/13 06:31:37;;;;;;;15.30;2.70;;;7.60;99.90;;;;;;5026154;28;20026;-71
2023/01/13 06:34:12;;;;;;;14.98;1.98;;;7.50;99.90;;;;;;5025056;28;20140;-71
2023/01/13 06:36:45;;;;;;;18.30;2.63;;;7.50;99.90;;;;;;5019190;28;20075;-71
2023/01/13 06:39:16;;;;;;;13.38;2.22;;;7.50;99.90;;;;;;5021389;28;20429;-70
2023/01/13 06:44:27;;;;;;;14.85;3.25;;;7.30;99.90;;;;;;5025688;28;20504;-71
2023/01/13 06:46:53;;;;;;;19.80;2.20;;;7.40;99.90;;;;;;5025811;28;20049;-71
2023/01/13 06:49:19;;;;;;;9.38;1.85;;;7.50;99.90;;;;;;5018552;28;20026;-73
2023/01/13 06:51:45;;;;;;;14.30;1.90;;;7.50;99.90;;;;;;5025078;28;20037;-71
2023/01/13 06:54:11;;;;;;;9.75;2.42;;;7.70;99.90;;;;;;5025699;28;20461;-72
2023/01/13 06:56:36;;;;;;;11.10;2.03;;;7.60;99.90;;;;;;5024316;28;20064;-71
2023/01/13 06:59:03;;;;;;;7.72;2.20;;;7.50;99.90;;;;;;5043402;28;20045;-72
2023/01/13 07:01:29;;;;;;;6.72;1.73;;;7.50;99.90;;;;;;5021112;28;20022;-71
2023/01/13 07:03:57;;;;;;;11.27;2.17;;;7.60;99.90;;;;;;5018188;28;20025;-71
2023/01/13 07:06:23;;;;;;;13.13;1.73;;;7.50;99.90;;;;;;5023922;28;20014;-71
2023/01/13 07:08:48;;;;;;;8.18;1.60;;;7.50;99.90;;;;;;5027232;28;20508;-73
2023/01/13 07:11:14;;;;;;;10.75;2.10;;;7.50;99.90;;;;;;5028694;28;20147;-71
2023/01/13 07:16:26;;;;;;;12.85;1.30;;;7.50;99.90;;;;;;5028700;28;20120;-72
2023/01/13 07:18:53;;;;;;;9.77;1.70;;;7.50;99.90;;;;;;5020628;28;20099;-71
2023/01/13 07:21:19;;;;;;;13.48;2.17;;;7.50;99.90;;;;;;5020929;28;20482;-71
2023/01/13 07:23:46;;;;;;;14.38;2.67;;;7.70;99.90;;;;;;5024213;28;20033;-70
2023/01/13 07:26:13;;;;;;;17.05;2.42;;;7.60;99.90;;;;;;5028602;28;20025;-70
2023/01/13 07:28:39;;;;;;;12.25;2.08;;;7.60;99.90;;;;;;5012576;28;20099;-71
2023/01/13 07:31:14;;;;;;;13.52;2.25;;;7.50;99.90;;;;;;5029615;28;20049;-72
2023/01/13 07:33:40;;;;;;;9.43;2.10;;;7.40;99.90;;;;;;5024901;28;20072;-71
2023/01/13 07:36:06;;;;;;;9.18;2.13;;;7.50;99.90;;;;;;5019619;28;20478;-69
2023/01/13 07:38:33;;;;;;;14.50;1.95;;;7.60;99.90;;;;;;5039644;28;20482;-75
2023/01/13 07:43:30;;;;;;;8.10;1.80;;;7.70;99.90;;;;;;5025502;28;20022;-75
2023/01/13 07:43:45;;;;;;;11.30;1.63;;;7.70;99.90;;;;;;5025094;28;20025;-76
2023/01/13 07:46:14;;;;;;;8.40;1.77;;;7.60;99.90;;;;;;5025494;28;20032;-77
2023/01/13 07:48:40;;;;;;;8.05;1.90;;;7.60;99.90;;;;;;5016905;28;20025;-74
2023/01/13 07:51:08;;;;;;;14.60;3.10;;;7.60;99.90;;;;;;5016168;28;20124;-73
2023/01/13 07:53:35;;;;;;;16.02;1.80;;;7.60;99.90;;;;;;5023631;28;20028;-73
2023/01/13 07:56:02;;;;;;;7.40;1.98;;;7.60;99.90;;;;;;5022104;28;20038;-71
2023/01/13 07:58:29;;;;;;;8.02;1.45;;;7.60;99.90;;;;;;5027514;28;20038;-69
2023/01/13 08:00:55;;;;;;;12.90;1.55;;;7.60;99.90;;;;;;5024939;28;20439;-73
2023/01/13 08:03:22;;;;;;;9.70;2.25;;;7.70;99.90;;;;;;5020122;28;20603;-72
2023/01/13 08:05:47;;;;;;;19.02;2.15;;;7.80;99.90;;;;;;5031604;28;20033;-71
2023/01/13 08:08:14;;;;;;;10.55;1.55;;;7.80;99.90;;;;;;5033529;28;20039;-72
2023/01/13 08:10:39;;;;;;;14.98;2.35;;;7.70;99.90;;;;;;5032478;28;20079;-72
2023/01/13 08:13:21;;;;;;;10.48;2.33;;;7.70;99.90;;;;;;5032846;28;20026;-73
2023/01/13 08:15:52;;;;;;;12.67;1.40;;;7.70;99.90;;;;;;5025381;28;20036;-73
2023/01/13 08:18:21;;;;;;;9.13;2.83;;;7.70;99.90;;;;;;5025936;28;20069;-73
2023/01/13 08:20:48;;;;;;;18.52;2.30;;;7.70;99.90;;;;;;5026277;28;20030;-74
2023/01/13 08:23:15;;;;;;;13.10;2.08;;;7.70;99.90;;;;;;5027179;28;20053;-71
2023/01/13 08:25:40;;;;;;;15.23;1.95;;;7.70;99.90;;;;;;5022204;28;20040;-73
2023/01/13 08:28:06;;;;;;;9.63;1.70;;;7.70;99.90;;;;;;5029225;28;20029;-73
2023/01/13 08:30:32;;;;;;;13.48;1.88;;;7.80;99.90;;;;;;5027301;28;20017;-72
2023/01/13 08:32:58;;;;;;;9.88;1.50;;;7.70;99.90;;;;;;5019374;28;20473;-72
2023/01/13 08:35:24;;;;;;;10.38;2.75;;;7.90;99.90;;;;;;5029093;28;20021;-71
2023/01/13 08:37:51;;;;;;;17.60;2.70;;;7.80;99.90;;;;;;5027082;28;20442;-73
2023/01/13 08:40:19;;;;;;;21.58;3.05;;;7.60;99.90;;;;;;5027704;28;20027;-72
2023/01/13 08:42:49;;;;;;;13.40;2.65;;;7.60;99.90;;;;;;5025875;28;20037;-72
2023/01/13 08:45:15;;;;;;;16.95;2.17;;;7.60;99.90;;;;;;5027370;28;20104;-71
2023/01/13 08:47:41;;;;;;;10.27;1.48;;;7.60;99.90;;;;;;5023991;28;20500;-69
2023/01/13 08:50:08;;;;;;;10.02;2.53;;;7.70;99.90;;;;;;5036378;28;20044;-71
2023/01/13 08:52:34;;;;;;;11.27;1.90;;;7.80;99.90;;;;;;5020026;28;20026;-69
2023/01/13 08:55:00;;;;;;;14.00;2.15;;;7.70;99.90;;;;;;5020244;28;20523;-70
2023/01/13 08:57:26;;;;;;;16.02;2.17;;;7.90;99.90;;;;;;5022000;28;20033;-70
2023/01/13 08:59:52;;;;;;;13.60;2.50;;;7.80;99.90;;;;;;5019996;28;20115;-71
2023/01/13 09:02:20;;;;;;;14.88;1.92;;;7.80;99.90;;;;;;5028543;28;20013;-70
2023/01/13 09:04:46;;;;;;;9.27;1.40;;;7.80;99.90;;;;;;5023822;28;20057;-71
2023/01/13 09:07:16;;;;;;;13.88;1.77;;;7.80;99.90;;;;;;5024752;28;20036;-71
2023/01/13 09:09:42;;;;;;;14.85;1.80;;;7.80;99.90;;;;;;5023906;28;20028;-71
2023/01/13 09:14:56;;;;;;;16.05;2.45;;;8.00;99.90;;;;;;5024486;28;20436;-71
2023/01/13 09:17:22;;;;;;;10.25;2.08;;;8.00;99.90;;;;;;5023489;28;20029;-70
2023/01/13 09:19:48;;;;;;;13.13;2.03;;;8.00;99.90;;;;;;5023431;28;20034;-72
2023/01/13 09:22:16;;;;;;;10.75;1.58;;;8.00;99.90;;;;;;5025030;28;20038;-71
2023/01/13 09:24:43;;;;;;;11.68;2.08;;;8.10;99.90;;;;;;5023398;28;20112;-67
2023/01/13 09:27:13;;;;;;;11.05;2.33;;;8.20;99.90;;;;;;5024371;28;20040;-69
2023/01/13 09:29:40;;;;;;;12.38;1.88;;;8.20;99.90;;;;;;5024080;28;20496;-68
2023/01/13 09:32:05;;;;;;;13.65;1.70;;;8.20;99.90;;;;;;5022809;28;20478;-67
2023/01/13 09:37:16;;;;;;;12.30;2.15;;;8.20;99.90;;;;;;5022146;28;20040;-68
2023/01/13 09:39:42;;;;;;;15.32;2.72;;;8.20;99.90;;;;;;5023532;28;20026;-68
2023/01/13 09:45:11;;;;;;;11.02;2.33;;;8.20;99.90;;;;;;5017064;28;20556;-68
2023/01/13 09:47:58;;;;;;;13.95;1.80;;;8.20;99.90;;;;;;5018911;28;20064;-67
2023/01/13 09:50:39;;;;;;;9.32;1.95;;;8.30;99.90;;;;;;5014205;28;20037;-63
2023/01/13 09:53:10;;;;;;;13.88;1.60;;;8.40;99.90;;;;;;5020312;28;20025;-63
2023/01/13 09:55:36;;;;;;;12.18;2.30;;;8.40;99.90;;;;;;5017240;28;20474;-66
2023/01/13 09:58:13;;;;;;;13.95;2.80;;;8.50;99.90;;;;;;5023339;28;20043;-66
2023/01/13 10:00:49;;;;;;;20.27;2.55;;;8.60;99.90;;;;;;5012137;28;20060;-66
2023/01/13 10:03:26;;;;;;;8.05;1.35;;;8.60;99.90;;;;;;5020032;28;20083;-66
2023/01/13 10:06:03;;;;;;;7.50;1.77;;;8.60;99.90;;;;;;5023875;28;20033;-67
2023/01/13 10:08:32;;;;;;;14.38;2.72;;;8.60;99.90;;;;;;5029198;28;20037;-66
2023/01/13 10:14:25;;;;;;;9.07;1.63;;;8.60;99.90;;;;;;5022804;28;20144;-66
2023/01/13 10:17:14;;;;;;;9.57;1.45;;;8.70;99.90;;;;;;5026588;28;20076;-66
2023/01/13 10:19:49;;;;;;;7.50;1.25;;;8.80;99.90;;;;;;5018636;28;20071;-64
2023/01/13 10:22:42;;;;;;;11.82;2.05;;;8.80;99.90;;;;;;5029185;28;20597;-65
2023/01/13 10:25:23;;;;;;;11.98;2.53;;;8.80;99.90;;;;;;5026885;28;20101;-64
2023/01/13 10:27:52;;;;;;;16.07;2.63;;;8.80;99.90;;;;;;5026646;28;20476;-64
2023/01/13 10:30:29;;;;;;;15.05;2.50;;;8.70;99.90;;;;;;5027373;28;20030;-65
2023/01/13 10:33:01;;;;;;;12.68;2.05;;;8.80;99.90;;;;;;5027185;28;20069;-63
2023/01/13 10:36:04;;;;;;;13.43;2.00;;;8.90;99.90;;;;;;5027758;28;20029;-64
2023/01/13 10:38:44;;;;;;;11.50;1.95;;;9.10;99.90;;;;;;5025315;28;20450;-65
2023/01/13 10:41:19;;;;;;;11.13;1.55;;;9.20;99.90;;;;;;5026515;28;20021;-65
2023/01/13 10:43:58;;;;;;;12.25;2.20;;;9.40;99.90;;;;;;5026589;28;20064;-65
2023/01/13 10:46:24;;;;;;;9.32;1.65;;;9.40;99.90;;;;;;5025966;28;20030;-66
2023/01/13 10:48:54;;;;;;;8.65;2.20;;;9.40;99.90;;;;;;5026743;28;20390;-65
2023/01/13 10:51:25;;;;;;;12.25;1.95;;;9.40;99.90;;;;;;5018183;28;20611;-65
2023/01/13 10:53:58;;;;;;;9.13;1.50;;;9.50;99.90;;;;;;5024205;28;20038;-65
2023/01/13 10:56:27;;;;;;;9.07;1.45;;;9.70;99.90;;;;;;5025126;28;20033;-66
2023/01/13 10:59:11;;;;;;;14.65;1.80;;;9.70;99.90;;;;;;5024632;28;20037;-66
2023/01/13 11:01:40;;;;;;;9.73;1.35;;;9.80;99.90;;;;;;5017488;28;20037;-65
2023/01/13 11:04:44;;;;;;;13.02;2.25;;;9.80;99.90;;;;;;5025107;28;20128;-65
2023/01/13 11:07:39;;;;;;;10.63;1.73;;;9.70;99.90;;;;;;4992795;28;20040;-63
2023/01/13 11:10:26;;;;;;;10.05;1.63;;;9.70;99.90;;;;;;5025772;28;20071;-63
2023/01/13 11:13:15;;;;;;;6.70;2.50;;;9.70;99.90;;;;;;5018938;28;20087;-65
2023/01/13 11:16:02;;;;;;;9.50;1.17;;;9.70;99.90;;;;;;5020082;28;20060;-64
2023/01/13 11:18:39;;;;;;;11.70;2.03;;;9.90;99.90;;;;;;5022878;28;20087;-67
2023/01/13 11:21:16;;;;;;;8.00;1.20;;;10.00;99.90;;;;;;5023943;28;20113;-65
2023/01/13 11:23:48;;;;;;;11.25;1.67;;;10.00;99.90;;;;;;5024695;28;20029;-64
2023/01/13 11:26:25;;;;;;;9.48;1.38;;;10.00;99.90;;;;;;5022625;28;20029;-64
2023/01/13 11:29:08;;;;;;;10.40;2.38;;;9.90;99.90;;;;;;5019663;28;20037;-65
2023/01/13 11:32:30;;;;;;;8.10;2.15;;;10.00;99.90;;;;;;5016765;28;20516;-65
2023/01/13 11:35:02;;;;;;;7.65;1.38;;;10.40;99.90;;;;;;5003609;28;20486;-65
2023/01/13 11:37:30;;;;;;;;;;;10.60;99.90;;;;;;5023247;28;20479;-64
2023/01/13 11:40:06;;;;;;;13.32;2.50;;;10.50;99.90;;;;;;5022214;28;20282;-66
2023/01/13 11:42:38;;;;;;;11.35;1.77;;;10.40;99.90;;;;;;5020091;28;20025;-63
2023/01/13 11:45:29;;;;;;;9.15;1.33;;;10.50;99.90;;;;;;5016079;28;20096;-64
2023/01/13 11:47:59;;;;;;;9.68;1.45;;;10.50;99.90;;;;;;5018157;28;20056;-65
2023/01/13 11:50:39;;;;;;;14.00;1.77;;;10.60;99.90;;;;;;5016393;28;20029;-63
2023/01/13 11:53:41;;;;;;;13.20;2.85;;;10.60;99.90;;;;;;5015618;28;20117;-64
2023/01/13 11:56:39;;;;;;;12.48;1.92;;;10.50;99.90;;;;;;5021860;28;20072;-64
2023/01/13 11:59:26;;;;;;;6.75;1.45;;;10.70;99.90;;;;;;5004087;28;20454;-65
2023/01/13 12:02:07;;;;;;;10.32;1.50;;;10.70;99.90;;;;;;5019413;28;20493;-64
2023/01/13 12:05:01;;;;;;;11.48;1.63;;;10.80;99.90;;;;;;5018494;28;20037;-63
2023/01/13 12:07:39;;;;;;;11.73;1.63;;;10.70;99.90;;;;;;5023758;28;20548;-65
2023/01/13 12:10:27;;;;;;;12.23;1.55;;;11.00;99.90;;;;;;5020918;28;20446;-64
2023/01/13 12:13:18;;;;;;;11.75;1.55;;;10.90;99.90;;;;;;5015925;28;20410;-64
2023/01/13 12:16:01;;;;;;;9.75;1.33;;;10.90;99.90;;;;;;5020829;28;20087;-64
2023/01/13 12:18:54;;;;;;;14.95;2.88;;;11.00;99.90;;;;;;5022379;28;20037;-63
2023/01/13 12:21:27;;;;;;;5.72;1.23;;;11.00;99.90;;;;;;5018456;28;20465;-64
2023/01/13 12:24:20;;;;;;;7.82;1.38;;;10.90;99.90;;;;;;5016368;28;20048;-65
2023/01/13 12:26:56;;;;;;;7.90;1.65;;;10.90;99.90;;;;;;5018533;28;20100;-65
2023/01/13 12:29:34;;;;;;;10.95;2.33;;;10.90;99.90;;;;;;5025263;28;20053;-66
2023/01/13 12:32:19;;;;;;;9.75;1.65;;;11.20;99.90;;;;;;5023943;28;20115;-65
2023/01/13 12:35:00;;;;;;;9.88;1.42;;;11.40;99.90;;;;;;5014643;28;20104;-64
2023/01/13 12:37:43;;;;;;;10.63;1.55;;;11.50;99.90;;;;;;5018751;28;20033;-65
2023/01/13 12:40:28;;;;;;;6.07;1.65;;;12.00;99.90;;;;;;5020658;28;20029;-65
2023/01/13 12:46:20;;;;;;;4.45;1.13;;;12.90;99.90;;;;;;5019573;28;20428;-65
2023/01/13 12:48:54;;;;;;;5.07;1.48;;;13.30;99.90;;;;;;5022087;28;20037;-64
2023/01/13 12:51:51;;;;;;;8.60;1.83;;;13.10;99.90;;;;;;5023399;28;20029;-65
2023/01/13 12:54:29;;;;;;;7.97;1.50;;;13.40;99.90;;;;;;5017133;28;20168;-65
2023/01/13 12:56:59;;;;;;;7.10;1.50;;;13.70;99.90;;;;;;5018234;28;20069;-64
2023/01/13 12:59:25;;;;;;;9.35;1.27;;;13.40;99.90;;;;;;5025034;28;20550;-64
2023/01/13 13:02:10;;;;;;;5.10;1.17;;;13.50;99.90;;;;;;5020354;28;20033;-66
2023/01/13 13:04:56;;;;;;;7.18;1.38;;;13.80;99.90;;;;;;5023757;28;20052;-64
2023/01/13 13:07:44;;;;;;;5.65;1.23;;;13.70;99.90;;;;;;5022566;28;20029;-67
2023/01/13 13:10:15;;;;;;;7.63;1.50;;;13.50;99.90;;;;;;5022544;28;20339;-65
2023/01/13 13:15:30;;;;;;;6.30;1.83;;;13.20;99.90;;;;;;5023193;28;21883;-65
2023/01/13 13:18:01;;;;;;;7.10;1.50;;;13.60;99.90;;;;;;5022527;28;20046;-64
2023/01/13 13:20:57;;;;;;;6.22;1.00;;;13.70;99.90;;;;;;5024181;28;20128;-63
2023/01/13 13:23:34;;;;;;;5.53;1.05;;;13.30;99.90;;;;;;5017215;28;20229;-64
2023/01/13 13:26:44;;;;;;;9.20;1.33;;;12.90;99.90;;;;;;5018255;28;20042;-63
2023/01/13 13:29:37;;;;;;;6.45;1.67;;;13.20;99.90;;;;;;5025140;28;20124;-63
2023/01/13 13:32:18;;;;;;;6.13;1.20;;;13.10;99.90;;;;;;5022777;28;20084;-65
2023/01/13 13:35:32;;;;;;;9.07;1.30;;;12.90;99.90;;;;;;5017865;28;20029;-62
2023/01/13 13:47:12;;;;;;;6.47;1.05;;;13.40;99.90;;;;;;5024213;28;20540;-63
2023/01/13 13:49:49;;;;;;;9.90;1.25;;;13.10;99.90;;;;;;5026405;28;20033;-65
2023/01/13 13:52:24;;;;;;;7.72;1.73;;;13.30;99.90;;;;;;5022754;28;20029;-63
2023/01/13 13:54:54;;;;;;;12.57;1.75;;;13.40;99.90;;;;;;5024038;28;20687;-64
2023/01/13 13:57:44;;;;;;;4.53;1.08;;;13.70;99.80;;;;;;5022026;28;20447;-64
2023/01/13 14:00:18;;;;;;;7.28;1.30;;;13.60;99.10;;;;;;5022161;28;20080;-65
2023/01/13 14:02:51;;;;;;;6.82;1.50;;;13.60;99.80;;;;;;5019829;28;20701;-64
2023/01/13 14:05:23;;;;;;;7.28;1.13;;;13.20;99.90;;;;;;5023433;28;20037;-64
2023/01/13 14:07:56;;;;;;;8.20;1.50;;;13.60;99.90;;;;;;5018767;28;20074;-64
2023/01/13 14:10:27;;;;;;;9.18;1.55;;;13.70;99.30;;;;;;5023917;28;20048;-64
2023/01/13 14:12:53;;;;;;;5.95;1.10;;;13.80;99.50;;;;;;5019608;28;20040;-64
2023/01/13 14:15:30;;;;;;;5.50;1.27;;;13.80;98.20;;;;;;5027091;28;20034;-63
2023/01/13 14:17:57;;;;;;;7.30;1.13;;;13.70;97.90;;;;;;5027410;28;20041;-64
2023/01/13 14:20:23;;;;;;;8.75;1.75;;;13.70;97.80;;;;;;5027554;28;20408;-65